Time;durP1;ratioP1;P1;durP2;ratioP2;P2;SDS_P1;SDS_P2;PMS_P1;PMS_P2;Temp;Humidity;BMP_temperature;BMP_pressure;BME280_temperature;BME280_humidity;BME280_pressure;Samples;Min_cycle;Max_cycle;Signal;HPM_P1;HPM_P2
2021/12/02 00:00:07;;;;;;;9.52;3.30;;;;;;;2.94;100.00;99794.31;5132810;28;20042;-76
2021/12/02 00:05:54;;;;;;;13.88;3.35;;;;;;;3.31;100.00;99826.72;5131803;28;20062;-76
2021/12/02 00:11:41;;;;;;;8.57;1.83;;;;;;;3.40;100.00;99826.34;5136567;28;20081;-75
2021/12/02 00:17:34;;;;;;;10.88;1.98;;;;;;;3.28;100.00;99812.06;5136399;28;20477;-74
2021/12/02 00:23:30;;;;;;;12.55;2.35;;;;;;;3.19;100.00;99818.50;5136089;27;20099;-76
2021/12/02 00:29:19;;;;;;;9.15;1.92;;;;;;;3.22;100.00;99818.13;5136035;28;20058;-76
2021/12/02 00:35:06;;;;;;;10.30;3.22;;;;;;;3.15;100.00;99811.13;5136123;28;20109;-77
2021/12/02 00:37:32;;;;;;;7.93;1.63;;;;;;;3.22;100.00;99799.63;5120476;28;20043;-76
2021/12/02 00:43:19;;;;;;;12.05;2.13;;;;;;;3.15;100.00;99811.94;5135884;28;20054;-77
2021/12/02 00:49:12;;;;;;;11.32;2.15;;;;;;;3.16;100.00;99808.28;5135647;28;20038;-76
2021/12/02 00:55:00;;;;;;;7.18;1.40;;;;;;;3.15;100.00;99804.03;5135575;27;20046;-77
2021/12/02 01:00:50;;;;;;;5.43;2.08;;;;;;;2.98;100.00;99769.16;5135435;28;20039;-77
2021/12/02 01:06:41;;;;;;;6.13;1.60;;;;;;;3.20;100.00;99817.50;5134549;27;20045;-78
2021/12/02 01:12:28;;;;;;;7.95;2.08;;;;;;;3.19;100.00;99804.47;5135661;28;20057;-75
2021/12/02 01:21:42;;;;;;;11.15;2.78;;;;;;;3.18;100.00;99816.88;5134737;27;20205;-76
2021/12/02 01:27:33;;;;;;;5.47;1.85;;;;;;;3.24;100.00;99812.63;5134793;28;20046;-75
2021/12/02 01:33:26;;;;;;;12.27;2.17;;;;;;;3.33;100.00;99820.22;5134905;27;20054;-79
2021/12/02 01:39:13;;;;;;;8.55;2.35;;;;;;;3.37;100.00;99837.31;5134867;28;20088;-78
2021/12/02 01:41:47;;;;;;;9.05;2.13;;;;;;;3.35;100.00;99828.75;5116126;28;20027;-77
2021/12/02 01:44:19;;;;;;;6.20;1.40;;;;;;;3.25;100.00;99815.09;5112697;28;20506;-79
2021/12/02 01:50:10;;;;;;;8.57;2.03;;;;;;;3.10;100.00;99809.06;5134784;28;20042;-77
2021/12/02 01:56:25;;;;;;;7.47;1.90;;;;;;;3.24;100.00;99839.06;5134264;27;20045;-76
2021/12/02 02:02:15;;;;;;;6.97;1.77;;;;;;;3.18;100.00;99839.78;5134350;28;20159;-77
2021/12/02 02:08:10;;;;;;;6.60;1.73;;;;;;;2.84;100.00;99840.50;5134277;28;20138;-78
2021/12/02 02:13:59;;;;;;;7.60;1.70;;;;;;;2.57;100.00;99834.16;5134332;28;20126;-77
2021/12/02 02:19:46;;;;;;;7.88;2.60;;;;;;;2.39;100.00;99830.13;5134257;28;20636;-78
2021/12/02 02:25:34;;;;;;;8.80;2.35;;;;;;;2.20;100.00;99832.50;5133947;28;20079;-77
2021/12/02 02:31:25;;;;;;;8.90;2.47;;;;;;;2.13;100.00;99827.16;5134013;27;20078;-78
2021/12/02 02:33:52;;;;;;;5.45;2.00;;;;;;;2.07;100.00;99823.47;5114160;28;20518;-79
2021/12/02 02:39:40;;;;;;;6.32;2.42;;;;;;;1.97;100.00;99828.19;5133702;28;20043;-77
2021/12/02 02:45:28;;;;;;;4.72;2.38;;;;;;;2.03;100.00;99826.66;5133817;28;20045;-75
2021/12/02 02:47:53;;;;;;;9.68;2.50;;;;;;;2.15;100.00;99817.25;5114960;28;20031;-76
2021/12/02 02:53:40;;;;;;;8.65;2.08;;;;;;;2.39;100.00;99818.75;5133639;28;20061;-79
2021/12/02 02:56:10;;;;;;;11.93;1.95;;;;;;;2.34;100.00;99818.50;5133309;28;20027;-77
2021/12/02 03:02:26;;;;;;;7.60;1.77;;;;;;;2.37;100.00;99821.56;5133312;28;20082;-79
2021/12/02 03:08:13;;;;;;;6.00;2.97;;;;;;;2.20;100.00;99822.78;5133475;28;20541;-78
2021/12/02 03:14:08;;;;;;;4.82;1.77;;;;;;;2.34;100.00;99832.50;5133311;28;20069;-79
2021/12/02 03:19:55;;;;;;;8.80;1.95;;;;;;;2.40;100.00;99841.50;5133290;28;20095;-76
2021/12/02 03:22:21;;;;;;;5.53;1.65;;;;;;;2.43;100.00;99849.03;5113903;28;20134;-75
2021/12/02 03:24:46;;;;;;;10.45;2.28;;;;;;;2.55;100.00;99839.63;5114433;28;20355;-76
2021/12/02 03:30:33;;;;;;;4.40;1.70;;;;;;;2.53;100.00;99838.97;5133451;28;20089;-78
2021/12/02 03:36:21;;;;;;;7.00;2.17;;;;;;;2.53;100.00;99860.09;5133121;28;20079;-78
2021/12/02 03:45:41;;;;;;;3.88;1.40;;;;;;;2.54;100.00;99860.91;5136264;28;20079;-77
2021/12/02 03:51:28;;;;;;;8.23;1.65;;;;;;;2.54;100.00;99860.91;5136720;28;20046;-78
2021/12/02 03:57:14;;;;;;;6.78;1.63;;;;;;;2.66;100.00;99851.50;5136589;28;20053;-77
2021/12/02 04:03:01;;;;;;;6.70;1.65;;;;;;;2.54;100.00;99856.44;5136081;28;20045;-77
2021/12/02 04:09:13;;;;;;;8.18;1.42;;;;;;;2.47;100.00;99845.00;5136102;27;20054;-79
2021/12/02 04:15:21;;;;;;;6.65;1.58;;;;;;;2.53;100.00;99838.16;5136178;28;20081;-76
2021/12/02 04:17:43;;;;;;;11.93;2.22;;;;;;;2.46;100.00;99824.91;5135160;28;20042;-76
2021/12/02 04:20:13;;;;;;;8.43;1.50;;;;;;;2.43;100.00;99833.19;5135722;28;20425;-77
2021/12/02 04:22:38;;;;;;;6.47;1.33;;;;;;;2.45;100.00;99850.47;5116555;28;20555;-78
2021/12/02 04:28:26;;;;;;;6.28;1.42;;;;;;;2.36;100.00;99840.22;5135835;28;20183;-78
2021/12/02 04:30:51;;;;;;;7.55;1.75;;;;;;;2.34;100.00;99850.97;5117294;28;20085;-79
2021/12/02 04:36:39;;;;;;;6.82;2.05;;;;;;;2.46;100.00;99865.31;5135608;28;20433;-79
2021/12/02 04:39:05;;;;;;;8.15;1.50;;;;;;;2.52;100.00;99881.38;5116260;28;21472;-79
2021/12/02 04:44:52;;;;;;;3.15;1.42;;;;;;;2.43;100.00;99876.22;5135422;28;20050;-79
2021/12/02 04:47:17;;;;;;;8.70;1.83;;;;;;;2.37;100.00;99882.25;5134782;28;20043;-80
2021/12/02 04:49:43;;;;;;;7.38;1.80;;;;;;;2.29;100.00;99878.88;5135355;28;20051;-79
2021/12/02 04:55:31;;;;;;;8.13;1.38;;;;;;;2.10;100.00;99875.81;5134575;27;20042;-79
2021/12/02 05:01:17;;;;;;;6.13;1.10;;;;;;;1.85;100.00;99877.91;5135173;28;20095;-78
2021/12/02 05:03:43;;;;;;;2.83;1.20;;;;;;;1.81;100.00;99881.09;5134439;28;20047;-78
2021/12/02 05:09:30;;;;;;;12.32;1.90;;;;;;;1.86;100.00;99881.38;5134665;27;20057;-77
2021/12/02 05:15:17;;;;;;;4.88;2.08;;;;;;;2.00;100.00;99896.34;5135229;28;20038;-76
2021/12/02 05:17:42;;;;;;;9.63;2.38;;;;;;;2.07;100.00;99912.28;5134803;28;20019;-77
2021/12/02 05:20:09;;;;;;;6.55;1.73;;;;;;;2.11;100.00;99916.19;5134908;28;20035;-77
2021/12/02 05:22:34;;;;;;;7.82;2.20;;;;;;;2.13;100.00;99925.53;5134029;28;20051;-76
2021/12/02 05:24:59;;;;;;;9.20;1.48;;;;;;;2.12;100.00;99916.00;5116325;28;20436;-76
2021/12/02 05:27:25;;;;;;;5.00;1.42;;;;;;;2.04;100.00;99905.56;5133977;28;20411;-76
2021/12/02 05:29:50;;;;;;;2.95;1.00;;;;;;;1.94;100.00;99910.25;5134616;28;20560;-77
2021/12/02 05:32:16;;;;;;;4.10;1.10;;;;;;;1.85;100.00;99909.53;5116234;28;20049;-76
2021/12/02 05:34:41;;;;;;;7.03;1.40;;;;;;;1.88;100.00;99905.72;5133785;28;20096;-77
2021/12/02 05:37:06;;;;;;;4.45;1.48;;;;;;;1.75;100.00;99906.34;5134540;28;20031;-75
2021/12/02 05:42:53;;;;;;;2.30;1.50;;;;;;;1.54;100.00;99901.78;5134754;27;20054;-76
2021/12/02 05:45:19;;;;;;;5.18;1.60;;;;;;;1.53;100.00;99894.88;5133525;28;20039;-76
2021/12/02 05:47:44;;;;;;;2.65;1.58;;;;;;;1.57;100.00;99897.97;5115850;28;20023;-75
2021/12/02 05:50:09;;;;;;;3.63;1.60;;;;;;;1.55;100.00;99910.50;5115985;28;20417;-76
2021/12/02 05:52:35;;;;;;;3.22;1.48;;;;;;;1.46;100.00;99915.03;5133436;28;20034;-77
2021/12/02 05:58:22;;;;;;;6.82;1.40;;;;;;;1.54;100.00;99928.13;5134685;28;20508;-76
2021/12/02 06:04:10;;;;;;;3.75;1.27;;;;;;;1.32;100.00;99923.69;5129700;28;20076;-76
2021/12/02 06:09:57;;;;;;;3.58;1.25;;;;;;;1.05;100.00;99908.41;5134397;28;20061;-77
2021/12/02 06:15:44;;;;;;;8.00;1.75;;;;;;;0.79;100.00;99912.19;5134015;28;20029;-76
2021/12/02 06:18:09;;;;;;;2.92;1.02;;;;;;;0.75;100.00;99903.03;5115405;28;20354;-76
2021/12/02 06:20:35;;;;;;;3.15;1.20;;;;;;;0.69;100.00;99913.44;5115468;28;20035;-76
2021/12/02 06:23:00;;;;;;;4.95;1.30;;;;;;;0.65;100.00;99914.78;5114807;28;20031;-76
2021/12/02 06:28:47;;;;;;;1.13;0.98;;;;;;;0.73;100.00;99926.06;5133964;28;20057;-77
2021/12/02 06:31:12;;;;;;;1.73;0.90;;;;;;;0.80;100.00;99929.63;5115406;28;20451;-75
2021/12/02 06:36:59;;;;;;;3.83;1.23;;;;;;;0.82;100.00;99914.47;5133949;28;20050;-76
2021/12/02 06:42:46;;;;;;;3.55;0.90;;;;;;;0.71;100.00;99912.25;5133829;28;20042;-77
2021/12/02 06:48:34;;;;;;;5.43;0.95;;;;;;;0.93;100.00;99937.78;5133935;28;20103;-77
2021/12/02 06:54:21;;;;;;;1.67;0.90;;;;;;;1.14;100.00;99963.47;5133610;28;20103;-75
2021/12/02 07:00:11;;;;;;;10.13;1.60;;;;;;;1.09;100.00;99967.63;5133969;28;20780;-78
2021/12/02 07:05:58;;;;;;;4.15;1.20;;;;;;;1.04;100.00;99967.31;5133225;28;20045;-76
2021/12/02 07:11:44;;;;;;;4.82;1.35;;;;;;;1.00;100.00;99980.00;5133079;28;20084;-75
2021/12/02 07:14:14;;;;;;;4.85;2.60;;;;;;;1.02;100.00;99964.88;5114134;28;20019;-76
2021/12/02 07:20:03;;;;;;;6.80;2.00;;;;;;;1.17;100.00;99986.84;5132351;27;20111;-75
2021/12/02 07:25:50;;;;;;;8.48;2.65;;;;;;;1.33;100.00;99999.06;5133161;28;20437;-75
2021/12/02 07:28:17;;;;;;;2.05;1.35;;;;;;;1.32;100.00;99978.97;5132059;28;20031;-77
2021/12/02 07:37:32;;;;;;;3.53;1.80;;;;;;;1.22;100.00;99992.38;5132459;28;20046;-76
2021/12/02 07:39:59;;;;;;;6.22;2.10;;;;;;;1.15;100.00;99996.69;5113780;28;20527;-75
2021/12/02 07:42:25;;;;;;;3.60;1.13;;;;;;;1.17;100.00;99999.19;5132213;28;20102;-75
2021/12/02 07:48:14;;;;;;;7.10;1.58;;;;;;;1.13;100.00;100003.13;5132607;28;20042;-75
2021/12/02 07:50:39;;;;;;;5.13;1.65;;;;;;;1.15;100.00;100003.75;5131208;28;20039;-76
2021/12/02 07:53:07;;;;;;;5.15;1.70;;;;;;;1.13;100.00;100003.13;5132128;28;20024;-78
2021/12/02 07:55:39;;;;;;;2.42;1.42;;;;;;;1.16;100.00;100006.25;5112124;28;20127;-76
2021/12/02 08:01:26;;;;;;;7.30;1.77;;;;;;;1.12;100.00;100018.09;5132381;28;20046;-76
2021/12/02 08:03:51;;;;;;;6.82;1.65;;;;;;;1.08;100.00;100006.28;5131819;28;20382;-76
2021/12/02 08:06:17;;;;;;;3.60;1.70;;;;;;;1.18;100.00;100019.25;5131695;28;20482;-76
2021/12/02 08:12:05;;;;;;;8.45;1.60;;;;;;;1.19;100.00;100026.97;5132220;28;20046;-77
2021/12/02 08:17:53;;;;;;;4.93;1.73;;;;;;;1.11;100.00;100026.16;5132037;28;20057;-77
2021/12/02 08:27:01;;;;;;;9.93;2.70;;;;;;;1.15;100.00;100030.09;5131775;28;20035;-77
2021/12/02 08:29:27;;;;;;;9.55;2.55;;;;;;;1.71;100.00;100030.72;5131628;27;20035;-77
2021/12/02 08:31:52;;;;;;;5.55;2.08;;;;;;;2.25;100.00;100018.19;5133366;28;20050;-76
2021/12/02 08:34:18;;;;;;;8.73;3.10;;;;;;;2.71;100.00;100034.69;5135161;28;20110;-77
2021/12/02 08:36:51;;;;;;;8.00;2.95;;;;;;;3.01;100.00;100035.47;5134158;28;20040;-77
2021/12/02 08:42:20;;;;;;;7.15;3.47;;;;;;;4.58;100.00;100038.91;5135732;28;19926;-76
2021/12/02 08:48:08;;;;;;;6.80;2.63;;;;;;;6.01;100.00;100077.75;5135173;28;20065;-77
2021/12/02 08:53:55;;;;;;;6.60;2.60;;;;;;;7.23;100.00;100107.22;5135915;28;20127;-76
2021/12/02 08:59:43;;;;;;;4.80;1.75;;;;;;;4.97;100.00;100115.94;5135545;28;20138;-76
2021/12/02 09:05:31;;;;;;;9.07;2.70;;;;;;;3.54;100.00;100127.75;5135403;28;20111;-76
2021/12/02 09:07:56;;;;;;;7.28;2.60;;;;;;;3.16;100.00;100127.88;5116175;28;20051;-75
2021/12/02 09:10:21;;;;;;;8.63;2.50;;;;;;;2.93;100.00;100120.06;5135042;28;20023;-75
2021/12/02 09:12:48;;;;;;;10.60;2.78;;;;;;;2.70;100.00;100120.16;5134110;28;20648;-77
2021/12/02 09:18:35;;;;;;;6.18;2.35;;;;;;;2.51;100.00;100120.66;5135281;28;20092;-75
2021/12/02 09:24:23;;;;;;;6.72;2.28;;;;;;;2.30;100.00;100137.16;5135175;28;20084;-75
2021/12/02 09:30:10;;;;;;;9.80;3.00;;;;;;;2.24;100.00;100139.69;5134980;28;20168;-77
2021/12/02 09:35:57;;;;;;;7.78;2.90;;;;;;;2.32;100.00;100147.56;5134900;28;20137;-76
2021/12/02 09:41:45;;;;;;;6.05;2.40;;;;;;;2.46;100.00;100144.94;5134056;27;20038;-75
2021/12/02 09:47:37;;;;;;;12.00;2.90;;;;;;;2.65;100.00;100153.38;5134341;28;20551;-77
2021/12/02 09:50:08;;;;;;;6.43;1.90;;;;;;;2.98;100.00;100141.47;5115461;28;20092;-76
2021/12/02 09:56:10;;;;;;;4.65;2.30;;;;;;;3.15;100.00;100144.72;5133744;28;20095;-76
2021/12/02 10:02:10;;;;;;;10.00;2.75;;;;;;;4.59;100.00;100147.25;5134458;28;20042;-74
2021/12/02 10:08:02;;;;;;;3.30;1.58;;;;;;;6.79;100.00;100161.91;5133941;28;20046;-75
2021/12/02 10:13:59;;;;;;;6.25;1.60;;;;;;;6.69;95.46;100150.88;5133111;28;20539;-76
2021/12/02 10:20:20;;;;;;;8.30;1.95;;;;;;;5.33;100.00;100173.22;5133553;27;20387;-75
2021/12/02 10:26:09;;;;;;;6.70;2.00;;;;;;;4.88;100.00;100174.56;5133386;28;20144;-76
2021/12/02 10:32:21;;;;;;;7.18;1.92;;;;;;;4.17;100.00;100184.34;5133444;28;20107;-78
2021/12/02 10:38:38;;;;;;;5.38;2.28;;;;;;;3.85;100.00;100183.81;5133199;27;20087;-79
2021/12/02 10:44:30;;;;;;;5.35;2.25;;;;;;;4.02;100.00;100181.75;5133157;28;20126;-77
2021/12/02 10:50:19;;;;;;;5.97;2.10;;;;;;;4.09;100.00;100195.06;5133281;28;20083;-78
2021/12/02 10:56:10;;;;;;;3.92;1.90;;;;;;;5.59;100.00;100186.59;5133159;27;20084;-78
2021/12/02 11:02:04;;;;;;;4.35;1.33;;;;;;;5.50;100.00;100197.56;5133041;28;20087;-78
2021/12/02 11:07:55;;;;;;;1.42;1.08;;;;;;;5.07;100.00;100210.16;5133051;28;20061;-78
2021/12/02 11:13:49;;;;;;;3.38;1.35;;;;;;;4.23;100.00;100196.81;5132808;28;20042;-77
2021/12/02 11:19:36;;;;;;;4.78;2.17;;;;;;;3.91;100.00;100209.53;5132610;28;20071;-74
2021/12/02 11:25:23;;;;;;;3.88;1.60;;;;;;;4.23;100.00;100215.34;5132665;27;20050;-74
2021/12/02 11:31:16;;;;;;;3.60;1.00;;;;;;;4.53;100.00;100205.44;5132839;28;20030;-75
2021/12/02 11:37:07;;;;;;;2.55;1.20;;;;;;;5.31;99.50;100212.34;5132853;28;20038;-75
2021/12/02 11:42:55;;;;;;;5.15;1.63;;;;;;;5.48;100.00;100226.91;5132643;28;20440;-76
2021/12/02 11:48:43;;;;;;;2.47;1.65;;;;;;;5.31;98.78;100219.47;5132132;28;20038;-74
2021/12/02 11:54:32;;;;;;;2.33;1.40;;;;;;;4.66;100.00;100217.00;5132598;28;20402;-76
2021/12/02 12:00:22;;;;;;;1.02;0.98;;;;;;;4.06;100.00;100193.63;5132117;28;20565;-74
2021/12/02 12:06:23;;;;;;;1.40;1.10;;;;;;;3.74;100.00;100213.38;5135171;27;20074;-75
2021/12/02 12:12:11;;;;;;;2.55;1.45;;;;;;;3.61;100.00;100218.50;5136347;28;20070;-73
2021/12/02 12:14:42;;;;;;;3.80;1.65;;;;;;;3.69;100.00;100223.69;5116326;28;20039;-74
2021/12/02 12:21:07;;;;;;;3.10;1.63;;;;;;;3.59;100.00;100233.72;5135631;28;20086;-75
2021/12/02 12:30:24;;;;;;;4.53;1.55;;;;;;;3.65;100.00;100251.50;5135422;28;20054;-75
2021/12/02 12:36:39;;;;;;;2.55;1.50;;;;;;;4.31;100.00;100255.72;5135249;28;20127;-75
2021/12/02 12:42:26;;;;;;;7.15;2.22;;;;;;;5.40;100.00;100258.88;5135521;28;20098;-74
2021/12/02 12:48:29;;;;;;;2.70;1.33;;;;;;;5.85;96.49;100260.16;5135397;27;20088;-74
2021/12/02 12:54:22;;;;;;;1.92;1.70;;;;;;;5.97;96.87;100279.00;5135178;28;20056;-75
2021/12/02 13:00:10;;;;;;;6.40;3.42;;;;;;;6.32;94.33;100300.97;5135329;28;20489;-74
2021/12/02 13:06:10;;;;;;;2.05;1.30;;;;;;;5.50;97.35;100314.25;5135303;28;20114;-75
2021/12/02 13:15:23;;;;;;;2.22;1.77;;;;;;;5.03;100.00;100325.47;5135057;28;20046;-75
2021/12/02 13:21:29;;;;;;;2.75;2.00;;;;;;;5.54;98.85;100342.81;5134758;28;20080;-74
2021/12/02 13:27:21;;;;;;;2.08;1.10;;;;;;;5.63;97.17;100340.00;5134470;28;20432;-74
2021/12/02 13:33:09;;;;;;;41.50;29.55;;;;;;;5.60;95.20;100341.22;5134634;28;20046;-76
2021/12/02 13:39:01;;;;;;;3.50;2.72;;;;;;;5.35;95.81;100355.91;5134939;28;20038;-74
2021/12/02 13:44:51;;;;;;;3.30;2.72;;;;;;;4.41;100.00;100358.66;5134678;27;20497;-74
2021/12/02 13:50:42;;;;;;;9.82;6.63;;;;;;;4.38;100.00;100363.53;5134477;28;20080;-73
2021/12/02 13:56:29;;;;;;;38.47;22.55;;;;;;;6.00;96.46;100376.78;5134323;28;20531;-74
2021/12/02 14:02:21;;;;;;;5.45;4.25;;;;;;;6.57;89.31;100388.91;5133771;28;20033;-73
2021/12/02 14:08:10;;;;;;;1.83;1.50;;;;;;;6.30;90.71;100411.88;5133765;28;20046;-74
2021/12/02 14:13:57;;;;;;;2.70;2.45;;;;;;;5.15;96.53;100398.97;5133824;27;20095;-75
2021/12/02 14:20:06;;;;;;;5.00;2.83;;;;;;;4.51;100.00;100425.38;5133657;28;20091;-74
2021/12/02 14:25:59;;;;;;;44.20;38.67;;;;;;;4.31;100.00;100416.34;5133793;28;20494;-73
2021/12/02 14:31:46;;;;;;;9.25;6.90;;;;;;;4.14;100.00;100436.91;5133463;28;20046;-74
2021/12/02 14:37:33;;;;;;;4.80;2.90;;;;;;;3.68;100.00;100429.06;5133319;28;20046;-74
2021/12/02 14:43:23;;;;;;;3.55;2.00;;;;;;;3.29;100.00;100436.34;5133325;27;20061;-73
2021/12/02 14:49:13;;;;;;;17.33;10.68;;;;;;;3.05;100.00;100456.66;5133275;28;20465;-72
2021/12/02 14:55:09;;;;;;;21.85;17.08;;;;;;;2.91;100.00;100477.72;5133404;28;20091;-74
2021/12/02 15:01:11;;;;;;;2.67;1.90;;;;;;;2.84;100.00;100484.66;5132962;28;20099;-73
2021/12/02 15:07:31;;;;;;;3.53;2.15;;;;;;;2.96;100.00;100509.69;5132706;28;20046;-74
2021/12/02 15:13:20;;;;;;;5.47;2.45;;;;;;;2.83;100.00;100501.50;5132874;28;20053;-75
2021/12/02 15:19:07;;;;;;;521.28;186.05;;;;;;;2.82;100.00;100511.22;5132573;27;20070;-74
2021/12/02 15:25:15;;;;;;;11.52;8.00;;;;;;;2.78;100.00;100528.41;5132619;28;20070;-74
2021/12/02 15:31:06;;;;;;;87.03;43.33;;;;;;;2.56;100.00;100527.31;5132859;28;20042;-73
2021/12/02 15:36:53;;;;;;;127.90;58.17;;;;;;;2.29;100.00;100525.91;5132322;28;20038;-73
2021/12/02 15:42:40;;;;;;;20.38;14.10;;;;;;;2.22;100.00;100542.56;5136055;28;20094;-75
2021/12/02 15:48:27;;;;;;;7.43;3.22;;;;;;;2.12;100.00;100558.59;5136175;27;20054;-74
2021/12/02 15:54:13;;;;;;;7.85;2.97;;;;;;;1.92;100.00;100568.63;5136005;28;20042;-74
2021/12/02 16:00:01;;;;;;;6.13;3.30;;;;;;;1.82;100.00;100594.34;5136388;28;20053;-72
2021/12/02 16:06:16;;;;;;;10.73;4.03;;;;;;;1.68;100.00;100603.69;5135673;28;20045;-73
2021/12/02 16:12:16;;;;;;;9.18;4.40;;;;;;;1.61;100.00;100599.25;5135877;28;20042;-73
2021/12/02 16:14:42;;;;;;;10.40;4.70;;;;;;;1.57;100.00;100603.19;5135547;28;20023;-72
2021/12/02 16:17:07;;;;;;;8.43;3.85;;;;;;;1.60;100.00;100597.59;5120602;28;20031;-73
2021/12/02 16:19:36;;;;;;;15.02;3.70;;;;;;;1.59;100.00;100603.84;5135290;28;20383;-73
2021/12/02 16:28:44;;;;;;;12.77;8.52;;;;;;;1.32;100.00;100623.38;5135355;28;20062;-75
2021/12/02 16:34:31;;;;;;;10.95;6.88;;;;;;;1.23;100.00;100638.31;5135509;28;20087;-74
2021/12/02 16:40:23;;;;;;;8.30;4.53;;;;;;;1.20;100.00;100651.81;5135715;27;20395;-76
2021/12/02 16:46:11;;;;;;;8.23;3.17;;;;;;;1.13;100.00;100648.13;5135108;28;20100;-75
2021/12/02 16:51:58;;;;;;;10.20;3.53;;;;;;;1.09;100.00;100649.44;5133059;27;20046;-75
2021/12/02 16:57:47;;;;;;;10.60;3.47;;;;;;;1.10;100.00;100667.72;5135248;28;20095;-77
2021/12/02 17:03:34;;;;;;;7.90;3.08;;;;;;;1.08;100.00;100664.41;5134488;28;20043;-75
2021/12/02 17:09:22;;;;;;;9.25;3.90;;;;;;;1.02;100.00;100665.03;5134848;27;20056;-75
2021/12/02 17:15:09;;;;;;;11.55;4.82;;;;;;;1.01;100.00;100673.09;5134919;28;20095;-76
2021/12/02 17:20:57;;;;;;;8.40;4.22;;;;;;;0.90;100.00;100675.03;5134469;27;20091;-74
2021/12/02 17:26:44;;;;;;;14.65;5.10;;;;;;;0.78;100.00;100685.94;5134339;28;20494;-73
2021/12/02 17:29:10;;;;;;;11.07;4.70;;;;;;;0.77;100.00;100708.81;5123147;27;20039;-73
2021/12/02 17:34:57;;;;;;;14.73;8.20;;;;;;;0.63;100.00;100732.22;5133683;28;20038;-74
2021/12/02 17:40:50;;;;;;;27.85;19.42;;;;;;;0.53;100.00;100734.91;5134305;28;20050;-75
2021/12/02 17:46:38;;;;;;;11.93;7.00;;;;;;;0.48;100.00;100740.63;5134191;28;20095;-72
2021/12/02 17:52:25;;;;;;;47.10;31.70;;;;;;;0.42;100.00;100741.25;5133464;27;20603;-73
2021/12/02 17:58:11;;;;;;;8.98;5.20;;;;;;;0.39;100.00;100751.25;5134234;28;20042;-74
2021/12/02 18:03:59;;;;;;;9.02;5.03;;;;;;;0.39;100.00;100761.75;5134023;27;20080;-73
2021/12/02 18:10:10;;;;;;;8.57;4.53;;;;;;;0.30;100.00;100764.31;5134198;27;20054;-74
2021/12/02 18:15:57;;;;;;;11.00;4.85;;;;;;;0.20;100.00;100771.44;5134004;28;20576;-73
2021/12/02 18:21:44;;;;;;;12.80;6.18;;;;;;;0.16;100.00;100777.13;5134199;28;20050;-72
2021/12/02 18:27:31;;;;;;;5.72;3.63;;;;;;;0.04;100.00;100786.22;5133626;28;20062;-74
2021/12/02 18:33:18;;;;;;;10.40;5.20;;;;;;;-0.11;100.00;100797.19;5134325;28;20030;-74
2021/12/02 18:39:05;;;;;;;8.00;4.05;;;;;;;-0.27;100.00;100804.91;5133684;28;20049;-74
2021/12/02 18:44:56;;;;;;;10.40;4.38;;;;;;;-0.45;100.00;100804.00;5133733;28;20403;-74
2021/12/02 18:50:44;;;;;;;12.93;4.65;;;;;;;-0.47;100.00;100825.16;5133261;28;20037;-74
2021/12/02 18:56:35;;;;;;;11.40;4.70;;;;;;;-0.57;100.00;100826.97;5133321;28;20038;-74
2021/12/02 19:02:24;;;;;;;9.65;3.78;;;;;;;-0.66;100.00;100830.44;5133142;27;20057;-74
2021/12/02 19:04:57;;;;;;;8.35;4.47;;;;;;;-0.65;100.00;100835.53;5113937;28;20078;-74
2021/12/02 19:28:45;;;;;;;7.50;3.13;;;;;;;-0.87;100.00;100877.84;5132683;28;20092;-73
2021/12/02 19:34:32;;;;;;;8.65;4.07;;;;;;;-0.91;100.00;100888.78;5132680;28;20168;-73
2021/12/02 19:40:19;;;;;;;10.90;4.95;;;;;;;-1.06;100.00;100883.94;5132739;28;20088;-74
2021/12/02 19:46:06;;;;;;;12.70;6.10;;;;;;;-1.21;100.00;100894.97;5132539;28;20087;-74
2021/12/02 19:51:54;;;;;;;11.05;5.70;;;;;;;-1.34;100.00;100892.63;5131826;27;20049;-77
2021/12/02 19:57:41;;;;;;;12.25;5.57;;;;;;;-1.45;100.00;100897.97;5132566;28;20042;-75
2021/12/02 20:03:29;;;;;;;14.20;7.18;;;;;;;-1.46;100.00;100917.28;5132416;28;20100;-75
2021/12/02 20:09:16;;;;;;;18.48;9.85;;;;;;;-1.49;100.00;100909.69;5132676;28;20042;-74
2021/12/02 20:15:05;;;;;;;19.35;9.35;;;;;;;-1.43;100.00;100914.41;5132846;28;20061;-74
2021/12/02 20:20:53;;;;;;;18.77;8.95;;;;;;;-1.47;100.00;100908.59;5132859;28;20534;-74
2021/12/02 20:26:40;;;;;;;16.60;9.48;;;;;;;-1.49;100.00;100913.13;5134871;27;20042;-75
2021/12/02 20:32:30;;;;;;;13.65;7.32;;;;;;;-1.51;100.00;100916.88;5136198;28;20065;-72
2021/12/02 20:38:17;;;;;;;20.95;7.75;;;;;;;-1.59;100.00;100904.44;5136020;28;20398;-72
2021/12/02 20:44:05;;;;;;;14.93;6.00;;;;;;;-1.57;100.00;100920.84;5135896;28;20054;-72
2021/12/02 20:49:57;;;;;;;14.82;6.90;;;;;;;-1.66;100.00;100929.53;5135453;28;20079;-73
2021/12/02 20:55:46;;;;;;;13.27;6.07;;;;;;;-1.68;100.00;100929.66;5135300;28;20084;-73
2021/12/02 21:01:33;;;;;;;14.45;6.18;;;;;;;-1.60;100.00;100952.59;5135477;28;20092;-74
2021/12/02 21:07:20;;;;;;;11.20;5.40;;;;;;;-1.59;100.00;100949.81;5135290;28;20049;-74
2021/12/02 21:13:10;;;;;;;14.88;6.18;;;;;;;-1.59;100.00;100952.44;5134833;28;20394;-76
2021/12/02 21:18:57;;;;;;;12.63;5.60;;;;;;;-1.47;100.00;100958.41;5134917;28;20411;-74
2021/12/02 21:24:45;;;;;;;10.75;5.13;;;;;;;-1.52;100.00;100968.47;5134087;28;20098;-76
2021/12/02 21:30:32;;;;;;;12.52;7.47;;;;;;;-1.54;100.00;100978.25;5134577;28;20399;-73
2021/12/02 21:36:29;;;;;;;11.15;5.88;;;;;;;-1.33;100.00;100988.69;5134477;28;20053;-73
2021/12/02 21:42:16;;;;;;;10.57;5.57;;;;;;;-1.27;100.00;100959.31;5134538;28;20107;-74
2021/12/02 21:48:04;;;;;;;11.57;5.97;;;;;;;-1.30;100.00;100938.59;5134476;28;20460;-75
2021/12/02 21:53:52;;;;;;;10.18;5.30;;;;;;;-1.21;100.00;100947.44;5134513;28;20064;-74
2021/12/02 21:59:43;;;;;;;8.00;5.28;;;;;;;-1.20;100.00;100960.41;5134045;28;20088;-75
2021/12/02 22:05:30;;;;;;;11.38;6.03;;;;;;;-1.15;100.00;100953.00;5134194;28;20088;-77
2021/12/02 22:11:18;;;;;;;11.70;5.50;;;;;;;-1.11;100.00;100972.75;5134335;28;20041;-75
2021/12/02 22:17:05;;;;;;;16.23;5.65;;;;;;;-1.10;100.00;100961.28;5133908;28;20084;-76
2021/12/02 22:22:52;;;;;;;11.73;5.28;;;;;;;-1.14;100.00;100954.66;5133939;28;20057;-77
2021/12/02 22:28:39;;;;;;;13.48;5.90;;;;;;;-1.17;100.00;100954.06;5133910;28;20407;-74
2021/12/02 22:37:51;;;;;;;15.90;6.53;;;;;;;-1.13;100.00;100955.47;5133372;28;20088;-76
2021/12/02 22:43:38;;;;;;;10.75;6.70;;;;;;;-1.16;100.00;100971.47;5133531;28;20128;-77
2021/12/02 22:49:25;;;;;;;12.82;7.07;;;;;;;-1.02;100.00;100995.53;5132420;27;20322;-77
2021/12/02 22:55:15;;;;;;;17.10;6.90;;;;;;;-1.01;100.00;100984.06;5133450;28;20054;-76
2021/12/02 23:01:10;;;;;;;16.95;6.53;;;;;;;-1.05;100.00;100995.81;5133598;27;20067;-76
2021/12/02 23:06:57;;;;;;;16.17;7.30;;;;;;;-1.07;100.00;100978.53;5132889;28;20521;-76
2021/12/02 23:12:44;;;;;;;16.42;7.82;;;;;;;-1.01;100.00;100998.97;5132550;28;20037;-75
2021/12/02 23:18:33;;;;;;;16.10;8.68;;;;;;;-1.07;100.00;100991.66;5133245;27;20432;-75
2021/12/02 23:24:37;;;;;;;18.85;8.13;;;;;;;-1.06;100.00;100983.66;5133012;28;20099;-78
2021/12/02 23:30:31;;;;;;;18.27;8.10;;;;;;;-1.14;100.00;100983.50;5131902;28;20090;-78
2021/12/02 23:36:23;;;;;;;21.08;9.15;;;;;;;-0.95;100.00;100991.38;5132611;28;20596;-78
2021/12/02 23:42:10;;;;;;;16.38;8.95;;;;;;;-1.09;100.00;100967.34;5133212;28;20047;-77
2021/12/02 23:47:57;;;;;;;19.23;9.77;;;;;;;-0.81;100.00;100984.94;5131917;27;20540;-79
2021/12/02 23:53:47;;;;;;;23.13;11.55;;;;;;;-0.97;100.00;100945.25;5132856;28;20038;-79
2021/12/02 23:59:34;;;;;;;24.83;12.90;;;;;;;-0.75;100.00;100959.94;5132957;27;20091;-79
